createdAt,value
2018-07-08T00:01:32.654Z,99.90
2018-07-08T00:04:00.948Z,99.90
2018-07-08T00:06:29.812Z,99.90
2018-07-08T00:08:59.543Z,99.90
2018-07-08T00:11:27.798Z,99.90
2018-07-08T00:13:56.083Z,99.90
2018-07-08T00:16:24.347Z,99.90
2018-07-08T00:18:52.777Z,99.90
2018-07-08T00:21:21.076Z,99.90
2018-07-08T00:26:18.217Z,99.90
2018-07-08T00:28:46.456Z,99.90
2018-07-08T00:31:15.131Z,99.90
2018-07-08T00:33:47.296Z,99.90
2018-07-08T00:36:15.556Z,99.90
2018-07-08T00:38:43.780Z,99.90
2018-07-08T00:41:12.056Z,99.90
2018-07-08T00:43:40.345Z,99.90
2018-07-08T00:46:08.572Z,99.90
2018-07-08T00:48:39.853Z,99.90
2018-07-08T00:51:08.112Z,99.90
2018-07-08T00:53:36.433Z,99.90
2018-07-08T00:56:05.284Z,99.90
2018-07-08T00:58:33.572Z,99.90
2018-07-08T01:01:01.897Z,99.90
2018-07-08T01:03:30.182Z,99.90
2018-07-08T01:05:58.435Z,99.90
2018-07-08T01:08:26.694Z,99.90
2018-07-08T01:10:54.967Z,99.90
2018-07-08T01:13:23.202Z,99.90
2018-07-08T01:15:51.447Z,99.90
2018-07-08T01:18:19.903Z,99.90
2018-07-08T01:20:48.152Z,99.90
2018-07-08T01:23:16.384Z,99.90
2018-07-08T01:25:55.865Z,99.90
2018-07-08T01:28:24.494Z,99.90
2018-07-08T01:33:20.723Z,99.90
2018-07-08T01:35:48.984Z,99.90
2018-07-08T01:38:17.218Z,99.90
2018-07-08T01:40:45.623Z,99.90
2018-07-08T01:43:13.899Z,99.90
2018-07-08T01:45:42.136Z,99.90
2018-07-08T01:48:10.368Z,99.90
2018-07-08T01:50:38.636Z,99.90
2018-07-08T01:53:06.868Z,99.90
2018-07-08T01:55:35.211Z,99.90
2018-07-08T01:58:03.467Z,99.90
2018-07-08T02:00:32.044Z,99.90
2018-07-08T02:03:00.276Z,99.90
2018-07-08T02:05:28.465Z,99.90
2018-07-08T02:08:00.498Z,99.90
2018-07-08T02:10:28.816Z,99.90
2018-07-08T02:12:57.206Z,99.90
2018-07-08T02:15:25.667Z,99.90
2018-07-08T02:17:54.932Z,99.90
2018-07-08T02:20:23.207Z,99.90
2018-07-08T02:22:51.606Z,99.90
2018-07-08T02:25:19.851Z,99.90
2018-07-08T02:27:48.185Z,99.90
2018-07-08T02:30:16.693Z,99.90
2018-07-08T02:32:44.965Z,99.90
2018-07-08T02:35:13.171Z,99.90
2018-07-08T02:37:44.577Z,99.90
2018-07-08T02:40:12.785Z,99.90
2018-07-08T02:42:41.024Z,99.90
2018-07-08T02:45:09.749Z,99.90
2018-07-08T02:47:38.351Z,99.90
2018-07-08T02:50:06.669Z,99.90
2018-07-08T02:52:34.988Z,99.90
2018-07-08T02:55:03.198Z,99.90
2018-07-08T02:57:31.614Z,99.90
2018-07-08T02:59:59.857Z,99.90
2018-07-08T03:02:28.160Z,99.90
2018-07-08T03:04:56.399Z,99.90
2018-07-08T03:07:28.928Z,99.90
2018-07-08T03:09:57.174Z,99.90
2018-07-08T03:12:25.432Z,99.90
2018-07-08T03:14:54.592Z,99.90
2018-07-08T03:17:22.856Z,99.90
2018-07-08T03:19:51.121Z,99.90
2018-07-08T03:22:19.337Z,99.90
2018-07-08T03:24:47.593Z,99.90
2018-07-08T03:27:15.851Z,99.90
2018-07-08T03:29:44.108Z,99.90
2018-07-08T03:32:12.479Z,99.90
2018-07-08T03:34:40.713Z,99.90
2018-07-08T03:37:12.565Z,99.90
2018-07-08T03:39:40.853Z,99.90
2018-07-08T03:44:37.431Z,99.90
2018-07-08T03:47:05.693Z,99.90
2018-07-08T03:49:33.926Z,99.90
2018-07-08T03:52:06.117Z,99.90
2018-07-08T03:54:34.399Z,99.90
2018-07-08T03:59:30.892Z,99.90
2018-07-08T04:01:59.154Z,99.90
2018-07-08T04:04:27.563Z,99.90
2018-07-08T04:06:55.804Z,99.90
2018-07-08T04:09:24.070Z,99.90
2018-07-08T04:11:52.601Z,99.90
2018-07-08T04:14:20.835Z,99.90
2018-07-08T04:16:49.089Z,99.90
2018-07-08T04:19:17.294Z,99.90
2018-07-08T04:21:45.568Z,99.90
2018-07-08T04:24:14.347Z,99.90
2018-07-08T04:26:42.939Z,99.90
2018-07-08T04:29:11.179Z,99.90
2018-07-08T04:31:39.794Z,99.90
2018-07-08T04:34:08.045Z,99.90
2018-07-08T04:36:43.127Z,99.90
2018-07-08T04:39:15.005Z,99.90
2018-07-08T04:41:44.169Z,99.90
2018-07-08T04:44:12.413Z,99.90
2018-07-08T04:46:40.666Z,99.90
2018-07-08T04:49:09.259Z,99.90
2018-07-08T04:51:37.474Z,99.90
2018-07-08T04:54:09.302Z,99.90
2018-07-08T04:56:37.540Z,99.90
2018-07-08T04:59:05.816Z,99.90
2018-07-08T05:01:34.191Z,99.90
2018-07-08T05:04:02.469Z,99.90
2018-07-08T05:06:30.773Z,99.90
2018-07-08T05:11:31.269Z,99.90
2018-07-08T05:13:59.509Z,99.90
2018-07-08T05:16:27.848Z,99.90
2018-07-08T05:18:56.128Z,99.90
2018-07-08T05:21:24.411Z,99.90
2018-07-08T05:23:52.693Z,99.90
2018-07-08T05:26:21.277Z,99.90
2018-07-08T05:31:17.931Z,99.90
2018-07-08T05:33:46.179Z,99.90
2018-07-08T05:36:14.436Z,99.90
2018-07-08T05:38:43.362Z,99.90
2018-07-08T05:41:11.625Z,99.90
2018-07-08T05:43:40.067Z,99.90
2018-07-08T05:46:08.362Z,99.90
2018-07-08T05:48:36.591Z,99.90
2018-07-08T05:51:04.818Z,99.90
2018-07-08T05:53:36.518Z,99.90
2018-07-08T05:56:04.828Z,99.90
2018-07-08T05:58:33.146Z,99.90
2018-07-08T06:01:01.375Z,99.90
2018-07-08T06:05:57.932Z,99.90
2018-07-08T06:10:54.670Z,99.90
2018-07-08T06:13:22.938Z,99.90
2018-07-08T06:15:51.190Z,99.90
2018-07-08T06:18:19.440Z,99.90
2018-07-08T06:20:47.737Z,99.90
2018-07-08T06:23:15.989Z,99.90
2018-07-08T06:25:44.665Z,99.90
2018-07-08T06:28:12.916Z,99.90
2018-07-08T06:30:41.143Z,99.90
2018-07-08T06:33:09.427Z,99.90
2018-07-08T06:35:37.679Z,99.90
2018-07-08T06:38:06.878Z,99.90
2018-07-08T06:40:38.430Z,99.90
2018-07-08T06:43:07.534Z,99.90
2018-07-08T06:45:39.051Z,99.90
2018-07-08T06:48:08.060Z,99.90
2018-07-08T06:53:04.286Z,99.90
2018-07-08T06:55:32.920Z,99.90
2018-07-08T06:58:01.197Z,99.90
2018-07-08T07:00:29.489Z,99.90
2018-07-08T07:02:57.956Z,99.90
2018-07-08T07:05:26.359Z,99.90
2018-07-08T07:07:54.602Z,99.90
2018-07-08T07:10:22.804Z,99.90
2018-07-08T07:12:51.033Z,99.90
2018-07-08T07:15:19.276Z,99.90
2018-07-08T07:17:53.960Z,99.90
2018-07-08T07:20:22.138Z,99.90
2018-07-08T07:22:50.391Z,99.90
2018-07-08T07:25:22.909Z,99.90
2018-07-08T07:27:51.112Z,99.90
2018-07-08T07:30:19.511Z,99.90
2018-07-08T07:32:48.340Z,99.90
2018-07-08T07:35:16.798Z,99.90
2018-07-08T07:37:45.044Z,99.90
2018-07-08T07:40:17.608Z,99.90
2018-07-08T07:42:46.101Z,99.90
2018-07-08T07:45:14.341Z,99.90
2018-07-08T08:07:04.389Z,99.90
2018-07-08T08:09:32.673Z,99.90
2018-07-08T08:12:01.240Z,99.90
2018-07-08T08:14:29.480Z,99.90
2018-07-08T08:16:57.812Z,99.90
2018-07-08T08:19:26.123Z,99.90
2018-07-08T08:21:54.452Z,99.90
2018-07-08T08:24:23.606Z,99.90
2018-07-08T08:26:52.188Z,99.90
2018-07-08T08:29:24.668Z,99.90
2018-07-08T08:31:52.942Z,99.20
2018-07-08T08:34:52.983Z,99.70
2018-07-08T08:37:22.666Z,98.40
2018-07-08T08:39:51.861Z,98.20
2018-07-08T08:42:23.545Z,98.20
2018-07-08T08:44:52.601Z,97.20
2018-07-08T08:47:21.288Z,96.80
2018-07-08T08:49:50.784Z,96.30
2018-07-08T08:52:20.196Z,96.50
2018-07-08T08:54:48.567Z,96.40
2018-07-08T08:57:20.236Z,96.50
2018-07-08T08:59:52.644Z,96.20
2018-07-08T09:02:21.017Z,97.10
2018-07-08T09:04:49.292Z,96.20
2018-07-08T09:07:18.668Z,96.30
2018-07-08T09:09:46.905Z,96.40
2018-07-08T09:12:19.475Z,96.80
2018-07-08T09:14:47.686Z,95.00
2018-07-08T09:17:16.469Z,95.40
2018-07-08T09:19:44.763Z,95.30
2018-07-08T09:22:12.985Z,94.90
2018-07-08T09:24:41.408Z,88.50
2018-07-08T09:27:13.411Z,85.50
2018-07-08T09:29:41.985Z,84.20
2018-07-08T09:32:10.241Z,77.70
2018-07-08T09:34:38.456Z,77.50
2018-07-08T09:37:06.703Z,76.40
2018-07-08T09:39:34.963Z,76.20
2018-07-08T09:42:03.219Z,73.90
2018-07-08T09:44:35.253Z,69.50
2018-07-08T09:47:03.598Z,70.70
2018-07-08T09:49:31.861Z,69.90
2018-07-08T09:52:00.137Z,71.50
2018-07-08T09:54:28.393Z,71.40
2018-07-08T09:56:56.665Z,68.40
2018-07-08T09:59:24.867Z,68.70
2018-07-08T10:01:53.116Z,67.50
2018-07-08T10:04:22.713Z,68.30
2018-07-08T10:06:52.009Z,69.40
2018-07-08T10:09:21.532Z,70.40
2018-07-08T10:11:49.794Z,71.60
2018-07-08T10:14:19.332Z,70.20
2018-07-08T10:16:47.534Z,71.10
2018-07-08T10:19:17.422Z,69.50
2018-07-08T10:21:45.777Z,71.30
2018-07-08T10:24:14.089Z,69.70
2018-07-08T10:26:42.381Z,68.20
2018-07-08T10:29:13.827Z,67.80
2018-07-08T10:31:48.416Z,64.90
2018-07-08T10:34:16.872Z,65.80
2018-07-08T10:39:18.860Z,65.80
2018-07-08T10:41:47.081Z,63.80
2018-07-08T10:44:18.360Z,62.60
2018-07-08T10:46:46.544Z,58.50
2018-07-08T10:49:14.817Z,60.90
2018-07-08T10:51:43.413Z,62.40
2018-07-08T10:54:11.615Z,62.50
2018-07-08T10:56:39.897Z,58.80
2018-07-08T10:59:08.126Z,57.00
2018-07-08T11:01:36.400Z,57.10
2018-07-08T11:04:04.681Z,54.70
2018-07-08T11:06:33.090Z,53.30
2018-07-08T11:09:01.391Z,52.50
2018-07-08T11:11:29.656Z,53.20
2018-07-08T11:14:01.260Z,52.40
2018-07-08T11:16:29.483Z,52.20
2018-07-08T11:18:57.889Z,53.10
2018-07-08T11:21:26.185Z,53.70
2018-07-08T11:23:54.410Z,53.80
2018-07-08T11:26:22.854Z,51.80
2018-07-08T11:28:51.085Z,48.80
2018-07-08T11:31:19.348Z,51.90
2018-07-08T11:33:47.602Z,50.10
2018-07-08T11:36:15.873Z,50.70
2018-07-08T11:38:44.146Z,51.00
2018-07-08T11:41:12.436Z,50.30
2018-07-08T11:43:40.716Z,48.30
2018-07-08T11:46:09.026Z,45.30
2018-07-08T11:48:37.264Z,46.60
2018-07-08T11:51:05.951Z,47.30
2018-07-08T11:53:34.379Z,47.70
2018-07-08T11:56:02.648Z,44.50
2018-07-08T11:58:31.635Z,42.00
2018-07-08T12:00:59.936Z,41.80
2018-07-08T12:03:28.185Z,42.80
2018-07-08T12:05:56.646Z,43.70
2018-07-08T12:08:24.909Z,42.10
2018-07-08T12:10:54.028Z,41.90
2018-07-08T12:13:22.224Z,43.40
2018-07-08T12:18:23.417Z,44.10
2018-07-08T12:20:52.328Z,43.40
2018-07-08T12:23:20.532Z,43.80
2018-07-08T12:25:48.808Z,45.20
2018-07-08T12:28:23.858Z,43.80
2018-07-08T12:30:56.449Z,42.60
2018-07-08T12:33:24.670Z,44.10
2018-07-08T12:35:53.503Z,44.30
2018-07-08T12:38:21.822Z,43.60
2018-07-08T12:40:50.065Z,45.30
2018-07-08T12:43:18.295Z,44.60
2018-07-08T12:45:46.568Z,44.40
2018-07-08T12:48:18.853Z,45.80
2018-07-08T12:50:47.080Z,44.80
2018-07-08T12:53:15.312Z,44.50
2018-07-08T12:55:43.551Z,45.10
2018-07-08T12:58:11.761Z,46.20
2018-07-08T13:00:43.162Z,46.70
2018-07-08T13:03:11.440Z,48.10
2018-07-08T13:05:39.722Z,47.90
2018-07-08T13:08:08.452Z,48.60
2018-07-08T13:10:36.737Z,49.00
2018-07-08T13:13:05.182Z,48.70
2018-07-08T13:15:33.363Z,48.80
2018-07-08T13:18:04.773Z,48.40
2018-07-08T13:20:33.864Z,47.90
2018-07-08T13:23:02.110Z,48.20
2018-07-08T13:25:30.425Z,48.50
2018-07-08T13:27:58.774Z,49.30
2018-07-08T13:30:26.988Z,49.30
2018-07-08T13:32:59.212Z,49.80
2018-07-08T13:35:27.452Z,48.80
2018-07-08T13:37:55.737Z,49.00
2018-07-08T13:40:24.008Z,49.00
2018-07-08T13:45:27.031Z,48.30
2018-07-08T13:47:59.524Z,49.50
2018-07-08T13:50:27.972Z,49.80
2018-07-08T13:52:56.370Z,50.70
2018-07-08T13:55:24.944Z,50.30
2018-07-08T13:57:53.416Z,50.00
2018-07-08T14:00:21.813Z,50.60
2018-07-08T14:02:54.202Z,51.10
2018-07-08T14:05:22.740Z,51.20
2018-07-08T14:07:51.006Z,51.20
2018-07-08T14:10:19.240Z,51.30
2018-07-08T14:12:47.570Z,50.90
2018-07-08T14:15:15.775Z,51.10
2018-07-08T14:17:48.799Z,51.80
2018-07-08T14:20:17.148Z,51.30
2018-07-08T14:22:45.563Z,51.70
2018-07-08T14:25:13.812Z,51.80
2018-07-08T14:27:42.078Z,52.90
2018-07-08T14:30:10.348Z,54.20
2018-07-08T14:32:42.488Z,54.20
2018-07-08T14:35:10.892Z,53.30
2018-07-08T15:31:16.216Z,52.90
2018-07-08T15:33:51.654Z,53.10
2018-07-08T15:36:20.933Z,52.20
2018-07-08T15:38:49.168Z,51.60
2018-07-08T15:41:17.388Z,51.80
2018-07-08T15:43:45.576Z,52.60
2018-07-08T15:46:13.880Z,52.00
2018-07-08T15:48:46.133Z,53.10
2018-07-08T15:51:14.376Z,53.20
2018-07-08T15:53:42.617Z,53.10
2018-07-08T15:56:10.936Z,53.40
2018-07-08T15:58:39.254Z,52.90
2018-07-08T16:03:35.576Z,52.60
2018-07-08T16:06:03.969Z,51.90
2018-07-08T16:08:32.271Z,51.40
2018-07-08T16:11:01.453Z,51.70
2018-07-08T16:13:29.805Z,51.30
2018-07-08T16:15:58.072Z,49.90
2018-07-08T16:18:26.912Z,47.90
2018-07-08T16:20:55.192Z,45.90
2018-07-08T16:23:23.486Z,46.70
2018-07-08T16:25:51.809Z,47.10
2018-07-08T16:28:20.373Z,46.50
2018-07-08T16:30:49.130Z,46.70
2018-07-08T16:33:17.352Z,44.70
2018-07-08T16:35:51.075Z,43.30
2018-07-08T16:38:19.375Z,42.20
2018-07-08T16:40:47.601Z,43.90
2018-07-08T16:43:16.728Z,43.90
2018-07-08T16:45:45.008Z,42.80
2018-07-08T16:48:13.437Z,41.50
2018-07-08T16:50:41.935Z,41.10
2018-07-08T16:53:10.196Z,42.20
2018-07-08T16:55:38.431Z,43.10
2018-07-08T16:58:06.628Z,44.70
2018-07-08T17:00:35.236Z,43.10
2018-07-08T17:03:03.428Z,42.40
2018-07-08T17:05:31.887Z,42.50
2018-07-08T17:08:00.863Z,43.50
2018-07-08T17:10:30.177Z,45.00
2018-07-08T17:12:58.518Z,43.50
2018-07-08T17:15:26.832Z,41.70
2018-07-08T17:17:55.584Z,42.30
2018-07-08T17:20:23.943Z,44.80
2018-07-08T17:22:52.760Z,46.80
2018-07-08T17:25:21.115Z,45.40
2018-07-08T17:27:49.763Z,44.70
2018-07-08T17:30:18.197Z,43.80
2018-07-08T17:32:47.145Z,45.00
2018-07-08T17:35:15.664Z,46.80
2018-07-08T17:40:13.530Z,47.20
2018-07-08T17:42:41.792Z,49.40
2018-07-08T17:45:10.659Z,49.50
2018-07-08T17:47:38.974Z,49.40
2018-07-08T17:50:07.500Z,48.70
2018-07-08T17:52:36.192Z,48.40
2018-07-08T17:57:33.858Z,48.80
2018-07-08T18:00:02.371Z,49.10
2018-07-08T18:02:30.651Z,49.70
2018-07-08T18:04:58.993Z,50.40
2018-07-08T18:07:27.331Z,51.00
2018-07-08T18:09:55.692Z,51.70
2018-07-08T18:12:24.026Z,52.20
2018-07-08T18:14:52.810Z,53.30
2018-07-08T18:17:21.328Z,53.30
2018-07-08T18:19:49.701Z,53.70
2018-07-08T18:22:18.023Z,54.80
2018-07-08T18:29:43.438Z,56.90
2018-07-08T18:32:11.695Z,57.50
2018-07-08T18:34:40.136Z,57.90
2018-07-08T18:42:12.123Z,59.00
2018-07-08T18:44:40.377Z,59.30
2018-07-08T18:47:08.684Z,59.50
2018-07-08T18:49:36.979Z,59.70
2018-07-08T18:52:05.177Z,59.70
2018-07-08T18:54:37.897Z,60.00
2018-07-08T18:57:06.155Z,60.40
2018-07-08T18:59:35.415Z,60.90
2018-07-08T19:02:04.009Z,61.60
2018-07-08T19:04:32.297Z,62.30
2018-07-08T19:07:11.889Z,62.70
2018-07-08T19:12:08.167Z,63.90
2018-07-08T19:19:32.842Z,65.80
2018-07-08T19:22:06.053Z,66.40
2018-07-08T19:24:38.180Z,66.80
2018-07-08T19:27:06.731Z,67.30
2018-07-08T19:29:34.967Z,68.00
2018-07-08T19:32:03.180Z,68.50
2018-07-08T19:37:03.460Z,69.50
2018-07-08T19:39:31.708Z,69.70
2018-07-08T19:42:00.013Z,70.40
2018-07-08T19:44:28.251Z,71.40
2018-07-08T19:46:56.848Z,71.10
2018-07-08T19:49:25.043Z,71.30
2018-07-08T19:51:54.140Z,71.60
2018-07-08T19:54:25.691Z,72.00
2018-07-08T19:56:54.165Z,72.40
2018-07-08T19:59:23.769Z,73.50
2018-07-08T20:01:52.105Z,74.00
2018-07-08T20:04:20.624Z,74.00
2018-07-08T20:06:48.856Z,74.30
2018-07-08T20:09:21.597Z,74.60
2018-07-08T20:11:49.960Z,75.70
2018-07-08T20:14:18.314Z,76.80
2018-07-08T20:16:46.502Z,78.10
2018-07-08T20:19:14.752Z,79.90
2018-07-08T20:24:11.742Z,81.70
2018-07-08T20:26:40.012Z,84.00
2018-07-08T20:29:09.275Z,82.80
2018-07-08T20:31:38.893Z,85.00
2018-07-08T20:34:07.212Z,86.90
2018-07-08T20:36:36.024Z,84.50
2018-07-08T20:39:05.040Z,87.50
2018-07-08T20:46:29.505Z,90.00
2018-07-08T20:48:58.322Z,90.30
2018-07-08T20:51:26.613Z,91.90
2018-07-08T20:53:55.464Z,92.50
2018-07-08T20:56:27.366Z,92.60
2018-07-08T20:58:55.627Z,92.70
2018-07-08T21:01:23.970Z,92.70
2018-07-08T21:03:53.125Z,94.70
2018-07-08T21:06:21.350Z,95.50
2018-07-08T21:08:54.069Z,95.50
2018-07-08T21:11:22.313Z,99.00
2018-07-08T21:13:50.616Z,99.80
2018-07-08T21:16:18.854Z,99.90
2018-07-08T21:18:47.199Z,99.10
2018-07-08T21:21:15.435Z,99.90
2018-07-08T21:23:43.662Z,99.90
2018-07-08T21:26:11.885Z,99.90
2018-07-08T21:28:40.432Z,99.90
2018-07-08T21:31:09.959Z,99.90
2018-07-08T21:33:38.552Z,99.90
2018-07-08T21:36:07.094Z,99.90
2018-07-08T21:38:35.496Z,99.90
2018-07-08T21:41:07.368Z,99.90
2018-07-08T21:43:35.592Z,99.90
2018-07-08T21:46:03.840Z,99.90
2018-07-08T21:48:32.087Z,99.90
2018-07-08T21:51:00.336Z,99.90
2018-07-08T21:53:28.607Z,99.90
2018-07-08T21:55:56.856Z,99.90
2018-07-08T21:58:25.089Z,99.90
2018-07-08T22:01:03.177Z,99.90
2018-07-08T22:03:31.466Z,99.90
2018-07-08T22:05:59.705Z,99.90
2018-07-08T22:08:33.318Z,99.90
2018-07-08T22:11:02.390Z,99.90
2018-07-08T22:13:30.663Z,99.90
2018-07-08T22:15:58.897Z,99.90
2018-07-08T22:18:27.148Z,99.90
2018-07-08T22:20:55.367Z,99.90
2018-07-08T22:23:23.595Z,99.90
2018-07-08T22:25:55.205Z,99.90
2018-07-08T22:28:23.591Z,99.90
2018-07-08T22:30:51.886Z,99.90
2018-07-08T22:33:20.394Z,99.90
2018-07-08T22:35:48.612Z,99.90
2018-07-08T22:38:17.055Z,99.90
2018-07-08T22:40:49.052Z,99.90
2018-07-08T22:43:17.320Z,99.90
2018-07-08T22:45:45.628Z,99.90
2018-07-08T22:48:13.923Z,99.90
2018-07-08T22:50:42.153Z,99.90
2018-07-08T22:53:10.359Z,99.90
2018-07-08T22:55:42.053Z,99.90
2018-07-08T22:58:10.607Z,99.90
2018-07-08T23:25:09.599Z,99.90
2018-07-08T23:27:37.908Z,99.90
2018-07-08T23:30:06.392Z,99.90
2018-07-08T23:32:34.957Z,99.90
2018-07-08T23:35:03.188Z,99.90
2018-07-08T23:37:32.304Z,99.90
2018-07-08T23:40:00.605Z,99.90
2018-07-08T23:42:32.681Z,99.90
2018-07-08T23:45:00.929Z,99.90
2018-07-08T23:47:29.215Z,99.90
2018-07-08T23:49:57.499Z,99.90
2018-07-08T23:52:25.783Z,99.90
2018-07-08T23:54:54.068Z,99.90
2018-07-08T23:57:22.285Z,99.90
2018-07-08T23:59:50.563Z,99.90
